sensor_id;sensor_type;location;lat;lon;timestamp;P1;durP1;ratioP1;P2;durP2;ratioP2
17696;SDS011;8967;47.984;7.842;2023-07-31T00:01:27;5.47;;;2.10;;
17696;SDS011;8967;47.984;7.842;2023-07-31T00:03:55;3.40;;;2.10;;
17696;SDS011;8967;47.984;7.842;2023-07-31T00:06:22;3.55;;;1.50;;
17696;SDS011;8967;47.984;7.842;2023-07-31T00:08:49;2.30;;;2.00;;
17696;SDS011;8967;47.984;7.842;2023-07-31T00:11:16;3.08;;;1.70;;
17696;SDS011;8967;47.984;7.842;2023-07-31T00:13:43;5.97;;;1.90;;
17696;SDS011;8967;47.984;7.842;2023-07-31T00:16:10;3.13;;;1.52;;
17696;SDS011;8967;47.984;7.842;2023-07-31T00:18:36;5.68;;;1.90;;
17696;SDS011;8967;47.984;7.842;2023-07-31T00:21:05;2.67;;;1.70;;
17696;SDS011;8967;47.984;7.842;2023-07-31T00:23:32;3.28;;;1.75;;
17696;SDS011;8967;47.984;7.842;2023-07-31T00:25:58;2.60;;;1.73;;
17696;SDS011;8967;47.984;7.842;2023-07-31T00:28:25;8.02;;;1.77;;
17696;SDS011;8967;47.984;7.842;2023-07-31T00:30:56;2.50;;;1.70;;
17696;SDS011;8967;47.984;7.842;2023-07-31T00:33:25;3.63;;;1.60;;
17696;SDS011;8967;47.984;7.842;2023-07-31T00:35:51;8.65;;;1.88;;
17696;SDS011;8967;47.984;7.842;2023-07-31T00:38:20;2.33;;;1.90;;
17696;SDS011;8967;47.984;7.842;2023-07-31T00:40:47;3.97;;;1.88;;
17696;SDS011;8967;47.984;7.842;2023-07-31T00:43:16;3.60;;;1.70;;
17696;SDS011;8967;47.984;7.842;2023-07-31T00:45:43;4.95;;;1.80;;
17696;SDS011;8967;47.984;7.842;2023-07-31T00:48:10;4.05;;;1.80;;
17696;SDS011;8967;47.984;7.842;2023-07-31T00:50:37;3.17;;;1.88;;
17696;SDS011;8967;47.984;7.842;2023-07-31T00:53:08;2.80;;;2.08;;
17696;SDS011;8967;47.984;7.842;2023-07-31T00:55:36;3.17;;;1.75;;
17696;SDS011;8967;47.984;7.842;2023-07-31T00:58:03;4.55;;;1.63;;
17696;SDS011;8967;47.984;7.842;2023-07-31T01:00:30;3.35;;;1.77;;
17696;SDS011;8967;47.984;7.842;2023-07-31T01:02:59;7.57;;;2.00;;
17696;SDS011;8967;47.984;7.842;2023-07-31T01:05:31;3.17;;;1.63;;
17696;SDS011;8967;47.984;7.842;2023-07-31T01:08:08;5.47;;;2.42;;
17696;SDS011;8967;47.984;7.842;2023-07-31T01:10:45;4.55;;;1.90;;
17696;SDS011;8967;47.984;7.842;2023-07-31T01:13:16;3.45;;;1.80;;
17696;SDS011;8967;47.984;7.842;2023-07-31T01:15:44;3.63;;;1.77;;
17696;SDS011;8967;47.984;7.842;2023-07-31T01:18:11;5.85;;;1.85;;
17696;SDS011;8967;47.984;7.842;2023-07-31T01:20:38;3.90;;;1.92;;
17696;SDS011;8967;47.984;7.842;2023-07-31T01:23:21;3.22;;;1.90;;
17696;SDS011;8967;47.984;7.842;2023-07-31T01:26:17;5.35;;;1.70;;
17696;SDS011;8967;47.984;7.842;2023-07-31T01:28:50;3.38;;;1.75;;
17696;SDS011;8967;47.984;7.842;2023-07-31T01:31:24;5.68;;;1.88;;
17696;SDS011;8967;47.984;7.842;2023-07-31T01:33:53;3.88;;;1.67;;
17696;SDS011;8967;47.984;7.842;2023-07-31T01:36:22;2.53;;;2.10;;
17696;SDS011;8967;47.984;7.842;2023-07-31T01:38:49;2.75;;;1.55;;
17696;SDS011;8967;47.984;7.842;2023-07-31T01:41:18;2.58;;;1.60;;
17696;SDS011;8967;47.984;7.842;2023-07-31T01:43:45;4.45;;;1.90;;
17696;SDS011;8967;47.984;7.842;2023-07-31T01:46:12;4.22;;;1.67;;
17696;SDS011;8967;47.984;7.842;2023-07-31T01:48:39;4.45;;;1.80;;
17696;SDS011;8967;47.984;7.842;2023-07-31T01:51:06;2.60;;;1.73;;
17696;SDS011;8967;47.984;7.842;2023-07-31T01:53:33;2.22;;;1.60;;
17696;SDS011;8967;47.984;7.842;2023-07-31T01:56:00;2.92;;;2.13;;
17696;SDS011;8967;47.984;7.842;2023-07-31T01:58:30;1.55;;;1.45;;
17696;SDS011;8967;47.984;7.842;2023-07-31T02:00:59;4.13;;;2.08;;
17696;SDS011;8967;47.984;7.842;2023-07-31T02:03:26;5.22;;;1.70;;
17696;SDS011;8967;47.984;7.842;2023-07-31T02:05:53;2.10;;;1.63;;
17696;SDS011;8967;47.984;7.842;2023-07-31T02:08:24;2.33;;;1.58;;
17696;SDS011;8967;47.984;7.842;2023-07-31T02:10:51;3.63;;;1.42;;
17696;SDS011;8967;47.984;7.842;2023-07-31T02:13:18;3.72;;;1.85;;
17696;SDS011;8967;47.984;7.842;2023-07-31T02:15:46;2.38;;;1.77;;
17696;SDS011;8967;47.984;7.842;2023-07-31T02:18:13;2.17;;;1.70;;
17696;SDS011;8967;47.984;7.842;2023-07-31T02:20:40;4.65;;;1.63;;
17696;SDS011;8967;47.984;7.842;2023-07-31T02:23:07;3.58;;;1.80;;
17696;SDS011;8967;47.984;7.842;2023-07-31T02:25:34;7.07;;;2.03;;
17696;SDS011;8967;47.984;7.842;2023-07-31T02:28:03;5.82;;;1.80;;
17696;SDS011;8967;47.984;7.842;2023-07-31T02:30:30;2.45;;;1.77;;
17696;SDS011;8967;47.984;7.842;2023-07-31T02:33:01;2.47;;;1.63;;
17696;SDS011;8967;47.984;7.842;2023-07-31T02:35:28;1.85;;;1.63;;
17696;SDS011;8967;47.984;7.842;2023-07-31T02:37:55;2.08;;;1.45;;
17696;SDS011;8967;47.984;7.842;2023-07-31T02:40:24;2.08;;;1.65;;
17696;SDS011;8967;47.984;7.842;2023-07-31T02:42:51;2.28;;;1.60;;
17696;SDS011;8967;47.984;7.842;2023-07-31T02:45:18;3.03;;;1.55;;
17696;SDS011;8967;47.984;7.842;2023-07-31T02:47:45;3.28;;;1.90;;
17696;SDS011;8967;47.984;7.842;2023-07-31T02:50:14;3.10;;;1.73;;
17696;SDS011;8967;47.984;7.842;2023-07-31T02:52:43;2.50;;;1.60;;
17696;SDS011;8967;47.984;7.842;2023-07-31T02:55:12;2.03;;;1.73;;
17696;SDS011;8967;47.984;7.842;2023-07-31T02:57:39;5.35;;;1.92;;
17696;SDS011;8967;47.984;7.842;2023-07-31T03:00:06;4.13;;;1.90;;
17696;SDS011;8967;47.984;7.842;2023-07-31T03:02:34;1.98;;;1.30;;
17696;SDS011;8967;47.984;7.842;2023-07-31T03:05:07;1.92;;;1.70;;
17696;SDS011;8967;47.984;7.842;2023-07-31T03:07:36;2.70;;;1.90;;
17696;SDS011;8967;47.984;7.842;2023-07-31T03:10:03;3.30;;;1.90;;
17696;SDS011;8967;47.984;7.842;2023-07-31T03:12:31;2.35;;;1.98;;
17696;SDS011;8967;47.984;7.842;2023-07-31T03:14:58;5.45;;;1.70;;
17696;SDS011;8967;47.984;7.842;2023-07-31T03:17:27;1.85;;;1.50;;
17696;SDS011;8967;47.984;7.842;2023-07-31T03:19:54;1.77;;;1.42;;
17696;SDS011;8967;47.984;7.842;2023-07-31T03:22:21;3.00;;;2.05;;
17696;SDS011;8967;47.984;7.842;2023-07-31T03:24:51;2.17;;;1.80;;
17696;SDS011;8967;47.984;7.842;2023-07-31T03:27:21;2.97;;;1.80;;
17696;SDS011;8967;47.984;7.842;2023-07-31T03:29:50;3.97;;;1.80;;
17696;SDS011;8967;47.984;7.842;2023-07-31T03:32:17;2.67;;;1.70;;
17696;SDS011;8967;47.984;7.842;2023-07-31T03:34:44;1.90;;;1.55;;
17696;SDS011;8967;47.984;7.842;2023-07-31T03:37:11;4.72;;;2.03;;
17696;SDS011;8967;47.984;7.842;2023-07-31T03:39:38;4.13;;;1.85;;
17696;SDS011;8967;47.984;7.842;2023-07-31T03:42:07;4.43;;;1.77;;
17696;SDS011;8967;47.984;7.842;2023-07-31T03:44:34;2.58;;;1.73;;
17696;SDS011;8967;47.984;7.842;2023-07-31T03:47:04;1.70;;;1.60;;
17696;SDS011;8967;47.984;7.842;2023-07-31T03:49:35;1.95;;;1.75;;
17696;SDS011;8967;47.984;7.842;2023-07-31T03:52:03;4.18;;;1.52;;
17696;SDS011;8967;47.984;7.842;2023-07-31T03:54:30;5.22;;;1.67;;
17696;SDS011;8967;47.984;7.842;2023-07-31T03:56:57;3.47;;;1.80;;
17696;SDS011;8967;47.984;7.842;2023-07-31T03:59:25;2.08;;;1.52;;
17696;SDS011;8967;47.984;7.842;2023-07-31T04:01:54;5.63;;;1.95;;
17696;SDS011;8967;47.984;7.842;2023-07-31T04:04:21;2.83;;;1.70;;
17696;SDS011;8967;47.984;7.842;2023-07-31T04:06:48;3.78;;;1.83;;
17696;SDS011;8967;47.984;7.842;2023-07-31T04:09:15;4.25;;;1.65;;
17696;SDS011;8967;47.984;7.842;2023-07-31T04:11:42;2.90;;;1.50;;
17696;SDS011;8967;47.984;7.842;2023-07-31T04:14:09;3.28;;;1.70;;
17696;SDS011;8967;47.984;7.842;2023-07-31T04:16:39;5.20;;;1.60;;
17696;SDS011;8967;47.984;7.842;2023-07-31T04:19:06;2.67;;;1.58;;
17696;SDS011;8967;47.984;7.842;2023-07-31T04:21:33;1.65;;;1.55;;
17696;SDS011;8967;47.984;7.842;2023-07-31T04:24:00;3.92;;;1.80;;
17696;SDS011;8967;47.984;7.842;2023-07-31T04:26:27;2.97;;;1.70;;
17696;SDS011;8967;47.984;7.842;2023-07-31T04:28:53;2.00;;;1.40;;
17696;SDS011;8967;47.984;7.842;2023-07-31T04:31:20;6.45;;;2.22;;
17696;SDS011;8967;47.984;7.842;2023-07-31T04:33:51;4.45;;;1.63;;
17696;SDS011;8967;47.984;7.842;2023-07-31T04:36:17;8.25;;;2.13;;
17696;SDS011;8967;47.984;7.842;2023-07-31T04:38:44;2.17;;;1.52;;
17696;SDS011;8967;47.984;7.842;2023-07-31T04:41:11;5.93;;;1.92;;
17696;SDS011;8967;47.984;7.842;2023-07-31T04:43:38;2.75;;;1.65;;
17696;SDS011;8967;47.984;7.842;2023-07-31T04:46:06;4.10;;;1.90;;
17696;SDS011;8967;47.984;7.842;2023-07-31T04:48:32;1.90;;;1.52;;
17696;SDS011;8967;47.984;7.842;2023-07-31T04:51:01;3.78;;;1.77;;
17696;SDS011;8967;47.984;7.842;2023-07-31T04:53:28;2.58;;;1.67;;
17696;SDS011;8967;47.984;7.842;2023-07-31T04:55:55;4.20;;;2.00;;
17696;SDS011;8967;47.984;7.842;2023-07-31T04:58:22;3.72;;;1.90;;
17696;SDS011;8967;47.984;7.842;2023-07-31T05:00:49;4.90;;;1.90;;
17696;SDS011;8967;47.984;7.842;2023-07-31T05:03:15;3.17;;;1.70;;
17696;SDS011;8967;47.984;7.842;2023-07-31T05:05:42;3.35;;;1.67;;
17696;SDS011;8967;47.984;7.842;2023-07-31T05:08:13;2.15;;;1.63;;
17696;SDS011;8967;47.984;7.842;2023-07-31T05:10:42;4.15;;;1.77;;
17696;SDS011;8967;47.984;7.842;2023-07-31T05:13:08;4.40;;;2.03;;
17696;SDS011;8967;47.984;7.842;2023-07-31T05:15:35;3.67;;;1.77;;
17696;SDS011;8967;47.984;7.842;2023-07-31T05:18:02;6.55;;;2.10;;
17696;SDS011;8967;47.984;7.842;2023-07-31T05:20:29;3.92;;;2.00;;
17696;SDS011;8967;47.984;7.842;2023-07-31T05:22:56;2.53;;;1.63;;
17696;SDS011;8967;47.984;7.842;2023-07-31T05:25:24;5.15;;;1.70;;
17696;SDS011;8967;47.984;7.842;2023-07-31T05:27:53;3.45;;;1.90;;
17696;SDS011;8967;47.984;7.842;2023-07-31T05:30:20;2.35;;;1.70;;
17696;SDS011;8967;47.984;7.842;2023-07-31T05:32:47;3.00;;;1.80;;
17696;SDS011;8967;47.984;7.842;2023-07-31T05:35:14;5.40;;;2.00;;
17696;SDS011;8967;47.984;7.842;2023-07-31T05:37:41;3.05;;;1.70;;
17696;SDS011;8967;47.984;7.842;2023-07-31T05:40:08;4.47;;;2.28;;
17696;SDS011;8967;47.984;7.842;2023-07-31T05:42:37;5.72;;;2.20;;
17696;SDS011;8967;47.984;7.842;2023-07-31T05:45:06;3.75;;;1.90;;
17696;SDS011;8967;47.984;7.842;2023-07-31T05:47:33;4.28;;;2.30;;
17696;SDS011;8967;47.984;7.842;2023-07-31T05:50:00;3.65;;;1.67;;
17696;SDS011;8967;47.984;7.842;2023-07-31T05:52:27;5.85;;;1.85;;
17696;SDS011;8967;47.984;7.842;2023-07-31T05:54:55;5.60;;;1.80;;
17696;SDS011;8967;47.984;7.842;2023-07-31T05:57:21;4.38;;;1.80;;
17696;SDS011;8967;47.984;7.842;2023-07-31T05:59:50;3.35;;;1.40;;
17696;SDS011;8967;47.984;7.842;2023-07-31T06:02:18;2.05;;;1.58;;
17696;SDS011;8967;47.984;7.842;2023-07-31T06:04:45;3.40;;;1.60;;
17696;SDS011;8967;47.984;7.842;2023-07-31T06:07:12;3.53;;;1.40;;
17696;SDS011;8967;47.984;7.842;2023-07-31T06:09:39;5.45;;;2.03;;
17696;SDS011;8967;47.984;7.842;2023-07-31T06:12:06;3.05;;;1.45;;
17696;SDS011;8967;47.984;7.842;2023-07-31T06:14:34;4.15;;;1.60;;
17696;SDS011;8967;47.984;7.842;2023-07-31T06:17:02;4.68;;;1.67;;
17696;SDS011;8967;47.984;7.842;2023-07-31T06:19:29;3.90;;;1.80;;
17696;SDS011;8967;47.984;7.842;2023-07-31T06:21:56;4.57;;;1.95;;
17696;SDS011;8967;47.984;7.842;2023-07-31T06:24:23;4.13;;;1.90;;
17696;SDS011;8967;47.984;7.842;2023-07-31T06:26:52;3.15;;;1.80;;
17696;SDS011;8967;47.984;7.842;2023-07-31T06:29:19;2.83;;;1.90;;
17696;SDS011;8967;47.984;7.842;2023-07-31T06:31:45;4.50;;;1.88;;
17696;SDS011;8967;47.984;7.842;2023-07-31T06:34:16;3.65;;;1.88;;
17696;SDS011;8967;47.984;7.842;2023-07-31T06:36:43;2.45;;;1.60;;
17696;SDS011;8967;47.984;7.842;2023-07-31T06:39:10;10.18;;;2.40;;
17696;SDS011;8967;47.984;7.842;2023-07-31T06:41:37;4.55;;;2.20;;
17696;SDS011;8967;47.984;7.842;2023-07-31T06:44:08;5.88;;;2.15;;
17696;SDS011;8967;47.984;7.842;2023-07-31T06:46:36;4.25;;;1.92;;
17696;SDS011;8967;47.984;7.842;2023-07-31T06:49:03;6.80;;;2.70;;
17696;SDS011;8967;47.984;7.842;2023-07-31T06:51:31;3.90;;;1.95;;
17696;SDS011;8967;47.984;7.842;2023-07-31T06:53:58;8.43;;;2.25;;
17696;SDS011;8967;47.984;7.842;2023-07-31T06:56:25;6.47;;;2.45;;
17696;SDS011;8967;47.984;7.842;2023-07-31T06:58:54;3.85;;;2.53;;
17696;SDS011;8967;47.984;7.842;2023-07-31T07:01:22;3.60;;;2.00;;
17696;SDS011;8967;47.984;7.842;2023-07-31T07:03:49;5.93;;;2.10;;
17696;SDS011;8967;47.984;7.842;2023-07-31T07:06:16;6.50;;;2.10;;
17696;SDS011;8967;47.984;7.842;2023-07-31T07:08:45;5.05;;;1.85;;
17696;SDS011;8967;47.984;7.842;2023-07-31T07:11:12;6.65;;;2.30;;
17696;SDS011;8967;47.984;7.842;2023-07-31T07:13:39;4.18;;;1.92;;
17696;SDS011;8967;47.984;7.842;2023-07-31T07:16:05;2.80;;;1.98;;
17696;SDS011;8967;47.984;7.842;2023-07-31T07:18:33;5.78;;;2.25;;
17696;SDS011;8967;47.984;7.842;2023-07-31T07:21:00;5.05;;;2.05;;
17696;SDS011;8967;47.984;7.842;2023-07-31T07:23:32;5.25;;;1.83;;
17696;SDS011;8967;47.984;7.842;2023-07-31T07:26:00;4.00;;;1.63;;
17696;SDS011;8967;47.984;7.842;2023-07-31T07:28:27;6.30;;;2.03;;
17696;SDS011;8967;47.984;7.842;2023-07-31T07:30:54;3.35;;;1.70;;
17696;SDS011;8967;47.984;7.842;2023-07-31T07:33:23;3.45;;;1.75;;
17696;SDS011;8967;47.984;7.842;2023-07-31T07:35:50;10.23;;;2.38;;
17696;SDS011;8967;47.984;7.842;2023-07-31T07:38:17;3.17;;;1.60;;
17696;SDS011;8967;47.984;7.842;2023-07-31T07:40:45;5.15;;;1.63;;
17696;SDS011;8967;47.984;7.842;2023-07-31T07:43:16;6.05;;;1.80;;
17696;SDS011;8967;47.984;7.842;2023-07-31T07:45:43;5.35;;;2.22;;
17696;SDS011;8967;47.984;7.842;2023-07-31T07:48:10;6.93;;;1.90;;
17696;SDS011;8967;47.984;7.842;2023-07-31T07:50:38;2.97;;;1.75;;
17696;SDS011;8967;47.984;7.842;2023-07-31T07:53:05;5.03;;;2.63;;
17696;SDS011;8967;47.984;7.842;2023-07-31T07:55:32;2.70;;;2.00;;
17696;SDS011;8967;47.984;7.842;2023-07-31T07:57:58;9.13;;;1.90;;
17696;SDS011;8967;47.984;7.842;2023-07-31T08:00:29;4.00;;;1.65;;
17696;SDS011;8967;47.984;7.842;2023-07-31T08:02:58;6.00;;;2.00;;
17696;SDS011;8967;47.984;7.842;2023-07-31T08:05:25;4.85;;;1.65;;
17696;SDS011;8967;47.984;7.842;2023-07-31T08:07:52;4.78;;;1.95;;
17696;SDS011;8967;47.984;7.842;2023-07-31T08:10:19;3.97;;;2.10;;
17696;SDS011;8967;47.984;7.842;2023-07-31T08:12:46;8.82;;;2.42;;
17696;SDS011;8967;47.984;7.842;2023-07-31T08:15:13;3.60;;;1.65;;
17696;SDS011;8967;47.984;7.842;2023-07-31T08:17:41;5.28;;;1.73;;
17696;SDS011;8967;47.984;7.842;2023-07-31T08:20:09;6.25;;;2.03;;
17696;SDS011;8967;47.984;7.842;2023-07-31T08:22:36;5.47;;;2.22;;
17696;SDS011;8967;47.984;7.842;2023-07-31T08:25:04;4.75;;;2.00;;
17696;SDS011;8967;47.984;7.842;2023-07-31T08:27:34;3.67;;;1.73;;
17696;SDS011;8967;47.984;7.842;2023-07-31T08:30:00;3.97;;;1.50;;
17696;SDS011;8967;47.984;7.842;2023-07-31T08:32:27;3.40;;;1.70;;
17696;SDS011;8967;47.984;7.842;2023-07-31T08:34:56;4.57;;;1.70;;
17696;SDS011;8967;47.984;7.842;2023-07-31T08:37:22;3.63;;;1.60;;
17696;SDS011;8967;47.984;7.842;2023-07-31T08:39:49;12.93;;;2.72;;
17696;SDS011;8967;47.984;7.842;2023-07-31T08:42:16;4.30;;;2.15;;
17696;SDS011;8967;47.984;7.842;2023-07-31T08:44:46;4.78;;;1.75;;
17696;SDS011;8967;47.984;7.842;2023-07-31T08:47:13;2.53;;;1.58;;
17696;SDS011;8967;47.984;7.842;2023-07-31T08:49:42;1.92;;;1.52;;
17696;SDS011;8967;47.984;7.842;2023-07-31T08:52:13;2.15;;;1.60;;
17696;SDS011;8967;47.984;7.842;2023-07-31T08:54:40;4.95;;;1.60;;
17696;SDS011;8967;47.984;7.842;2023-07-31T08:57:06;2.75;;;1.52;;
17696;SDS011;8967;47.984;7.842;2023-07-31T08:59:34;4.50;;;2.20;;
17696;SDS011;8967;47.984;7.842;2023-07-31T09:02:03;4.60;;;2.30;;
17696;SDS011;8967;47.984;7.842;2023-07-31T09:04:32;4.25;;;1.70;;
17696;SDS011;8967;47.984;7.842;2023-07-31T09:07:02;3.30;;;1.27;;
17696;SDS011;8967;47.984;7.842;2023-07-31T09:09:33;7.05;;;2.15;;
17696;SDS011;8967;47.984;7.842;2023-07-31T09:12:00;8.43;;;2.40;;
17696;SDS011;8967;47.984;7.842;2023-07-31T09:14:28;6.10;;;2.63;;
17696;SDS011;8967;47.984;7.842;2023-07-31T09:16:55;4.85;;;1.88;;
17696;SDS011;8967;47.984;7.842;2023-07-31T09:19:27;4.50;;;1.73;;
17696;SDS011;8967;47.984;7.842;2023-07-31T09:21:55;5.95;;;1.88;;
17696;SDS011;8967;47.984;7.842;2023-07-31T09:24:25;2.67;;;1.73;;
17696;SDS011;8967;47.984;7.842;2023-07-31T09:26:54;2.95;;;1.45;;
17696;SDS011;8967;47.984;7.842;2023-07-31T09:29:22;7.43;;;2.10;;
17696;SDS011;8967;47.984;7.842;2023-07-31T09:31:50;5.80;;;1.95;;
17696;SDS011;8967;47.984;7.842;2023-07-31T09:34:17;5.18;;;1.80;;
17696;SDS011;8967;47.984;7.842;2023-07-31T09:36:45;2.83;;;1.85;;
17696;SDS011;8967;47.984;7.842;2023-07-31T09:39:15;6.72;;;2.10;;
17696;SDS011;8967;47.984;7.842;2023-07-31T09:41:46;3.35;;;2.00;;
17696;SDS011;8967;47.984;7.842;2023-07-31T09:44:20;3.35;;;1.65;;
17696;SDS011;8967;47.984;7.842;2023-07-31T09:46:50;3.53;;;2.20;;
17696;SDS011;8967;47.984;7.842;2023-07-31T09:49:19;4.68;;;1.77;;
17696;SDS011;8967;47.984;7.842;2023-07-31T09:51:46;3.85;;;1.90;;
17696;SDS011;8967;47.984;7.842;2023-07-31T09:54:13;4.07;;;1.60;;
17696;SDS011;8967;47.984;7.842;2023-07-31T09:56:41;5.70;;;2.05;;
17696;SDS011;8967;47.984;7.842;2023-07-31T09:59:13;3.60;;;1.73;;
17696;SDS011;8967;47.984;7.842;2023-07-31T10:01:43;4.85;;;1.85;;
17696;SDS011;8967;47.984;7.842;2023-07-31T10:04:11;5.75;;;2.05;;
17696;SDS011;8967;47.984;7.842;2023-07-31T10:06:39;5.18;;;2.47;;
17696;SDS011;8967;47.984;7.842;2023-07-31T10:09:08;6.90;;;2.30;;
17696;SDS011;8967;47.984;7.842;2023-07-31T10:11:41;6.13;;;2.10;;
17696;SDS011;8967;47.984;7.842;2023-07-31T10:14:18;5.30;;;2.03;;
17696;SDS011;8967;47.984;7.842;2023-07-31T10:16:48;7.45;;;2.33;;
17696;SDS011;8967;47.984;7.842;2023-07-31T10:19:16;3.67;;;1.90;;
17696;SDS011;8967;47.984;7.842;2023-07-31T10:21:44;6.07;;;2.28;;
17696;SDS011;8967;47.984;7.842;2023-07-31T10:24:12;5.47;;;2.13;;
17696;SDS011;8967;47.984;7.842;2023-07-31T10:26:40;6.05;;;2.03;;
17696;SDS011;8967;47.984;7.842;2023-07-31T10:29:10;3.75;;;1.80;;
17696;SDS011;8967;47.984;7.842;2023-07-31T10:31:37;7.43;;;1.95;;
17696;SDS011;8967;47.984;7.842;2023-07-31T10:34:06;4.40;;;1.85;;
17696;SDS011;8967;47.984;7.842;2023-07-31T10:36:33;7.57;;;2.75;;
17696;SDS011;8967;47.984;7.842;2023-07-31T10:39:00;6.40;;;2.45;;
17696;SDS011;8967;47.984;7.842;2023-07-31T10:41:30;8.15;;;2.20;;
17696;SDS011;8967;47.984;7.842;2023-07-31T10:43:58;5.03;;;1.85;;
17696;SDS011;8967;47.984;7.842;2023-07-31T10:46:28;6.03;;;2.17;;
17696;SDS011;8967;47.984;7.842;2023-07-31T10:48:57;3.05;;;1.88;;
17696;SDS011;8967;47.984;7.842;2023-07-31T10:51:26;5.70;;;2.50;;
17696;SDS011;8967;47.984;7.842;2023-07-31T10:54:10;8.82;;;2.00;;
17696;SDS011;8967;47.984;7.842;2023-07-31T10:56:40;4.38;;;2.47;;
17696;SDS011;8967;47.984;7.842;2023-07-31T10:59:11;5.30;;;2.35;;
17696;SDS011;8967;47.984;7.842;2023-07-31T11:01:50;8.27;;;2.40;;
17696;SDS011;8967;47.984;7.842;2023-07-31T11:04:22;4.82;;;2.30;;
17696;SDS011;8967;47.984;7.842;2023-07-31T11:06:57;7.18;;;2.33;;
17696;SDS011;8967;47.984;7.842;2023-07-31T11:09:27;4.65;;;1.88;;
17696;SDS011;8967;47.984;7.842;2023-07-31T11:11:56;4.47;;;2.38;;
17696;SDS011;8967;47.984;7.842;2023-07-31T11:14:24;3.20;;;2.22;;
17696;SDS011;8967;47.984;7.842;2023-07-31T11:16:51;4.00;;;2.17;;
17696;SDS011;8967;47.984;7.842;2023-07-31T11:19:21;5.78;;;2.00;;
17696;SDS011;8967;47.984;7.842;2023-07-31T11:21:49;7.20;;;2.33;;
17696;SDS011;8967;47.984;7.842;2023-07-31T11:24:20;7.03;;;2.33;;
17696;SDS011;8967;47.984;7.842;2023-07-31T11:26:50;4.95;;;1.80;;
17696;SDS011;8967;47.984;7.842;2023-07-31T11:29:17;2.47;;;1.98;;
17696;SDS011;8967;47.984;7.842;2023-07-31T11:31:47;7.68;;;1.92;;
17696;SDS011;8967;47.984;7.842;2023-07-31T11:34:14;4.10;;;2.38;;
17696;SDS011;8967;47.984;7.842;2023-07-31T11:36:52;5.15;;;2.05;;
17696;SDS011;8967;47.984;7.842;2023-07-31T11:39:21;5.85;;;2.40;;
17696;SDS011;8967;47.984;7.842;2023-07-31T11:41:48;3.65;;;1.95;;
17696;SDS011;8967;47.984;7.842;2023-07-31T11:44:15;6.40;;;2.05;;
17696;SDS011;8967;47.984;7.842;2023-07-31T11:46:41;3.85;;;1.88;;
17696;SDS011;8967;47.984;7.842;2023-07-31T11:49:09;7.32;;;2.00;;
17696;SDS011;8967;47.984;7.842;2023-07-31T11:51:38;3.55;;;2.10;;
17696;SDS011;8967;47.984;7.842;2023-07-31T11:54:05;5.32;;;1.80;;
17696;SDS011;8967;47.984;7.842;2023-07-31T11:56:34;4.93;;;2.13;;
17696;SDS011;8967;47.984;7.842;2023-07-31T11:59:01;4.63;;;2.10;;
17696;SDS011;8967;47.984;7.842;2023-07-31T12:01:30;3.80;;;2.05;;
17696;SDS011;8967;47.984;7.842;2023-07-31T12:03:58;5.82;;;2.45;;
17696;SDS011;8967;47.984;7.842;2023-07-31T12:06:32;4.22;;;2.00;;
17696;SDS011;8967;47.984;7.842;2023-07-31T12:09:00;7.95;;;2.35;;
17696;SDS011;8967;47.984;7.842;2023-07-31T12:11:28;4.43;;;1.85;;
17696;SDS011;8967;47.984;7.842;2023-07-31T12:13:56;4.85;;;2.38;;
17696;SDS011;8967;47.984;7.842;2023-07-31T12:16:26;5.20;;;2.38;;
17696;SDS011;8967;47.984;7.842;2023-07-31T12:18:53;7.80;;;2.20;;
17696;SDS011;8967;47.984;7.842;2023-07-31T12:21:22;5.93;;;2.55;;
17696;SDS011;8967;47.984;7.842;2023-07-31T12:23:52;4.47;;;2.00;;
17696;SDS011;8967;47.984;7.842;2023-07-31T12:26:19;5.60;;;2.28;;
17696;SDS011;8967;47.984;7.842;2023-07-31T12:28:48;6.90;;;2.22;;
17696;SDS011;8967;47.984;7.842;2023-07-31T12:31:18;3.67;;;2.15;;
17696;SDS011;8967;47.984;7.842;2023-07-31T12:33:49;9.07;;;2.72;;
17696;SDS011;8967;47.984;7.842;2023-07-31T12:36:17;5.93;;;3.05;;
17696;SDS011;8967;47.984;7.842;2023-07-31T12:38:46;5.47;;;2.40;;
17696;SDS011;8967;47.984;7.842;2023-07-31T12:41:13;6.25;;;1.98;;
17696;SDS011;8967;47.984;7.842;2023-07-31T12:43:43;7.43;;;2.20;;
17696;SDS011;8967;47.984;7.842;2023-07-31T12:46:11;5.28;;;2.42;;
17696;SDS011;8967;47.984;7.842;2023-07-31T12:48:39;3.70;;;2.08;;
17696;SDS011;8967;47.984;7.842;2023-07-31T12:51:09;5.95;;;2.30;;
17696;SDS011;8967;47.984;7.842;2023-07-31T12:53:36;4.53;;;2.42;;
17696;SDS011;8967;47.984;7.842;2023-07-31T12:56:05;7.03;;;2.67;;
17696;SDS011;8967;47.984;7.842;2023-07-31T12:58:32;5.55;;;2.20;;
17696;SDS011;8967;47.984;7.842;2023-07-31T13:00:59;4.15;;;2.22;;
17696;SDS011;8967;47.984;7.842;2023-07-31T13:03:29;5.07;;;2.33;;
17696;SDS011;8967;47.984;7.842;2023-07-31T13:05:57;4.97;;;2.15;;
17696;SDS011;8967;47.984;7.842;2023-07-31T13:08:24;3.35;;;2.13;;
17696;SDS011;8967;47.984;7.842;2023-07-31T13:10:57;5.25;;;2.20;;
17696;SDS011;8967;47.984;7.842;2023-07-31T13:13:24;8.05;;;2.70;;
17696;SDS011;8967;47.984;7.842;2023-07-31T13:15:53;5.30;;;2.65;;
17696;SDS011;8967;47.984;7.842;2023-07-31T13:18:20;4.32;;;2.58;;
17696;SDS011;8967;47.984;7.842;2023-07-31T13:20:47;5.30;;;2.70;;
17696;SDS011;8967;47.984;7.842;2023-07-31T13:23:15;7.75;;;3.03;;
17696;SDS011;8967;47.984;7.842;2023-07-31T13:25:42;9.23;;;2.80;;
17696;SDS011;8967;47.984;7.842;2023-07-31T13:28:09;4.07;;;2.15;;
17696;SDS011;8967;47.984;7.842;2023-07-31T13:30:36;3.67;;;2.38;;
17696;SDS011;8967;47.984;7.842;2023-07-31T13:33:03;3.08;;;2.40;;
17696;SDS011;8967;47.984;7.842;2023-07-31T13:35:30;5.43;;;2.53;;
17696;SDS011;8967;47.984;7.842;2023-07-31T13:37:59;5.80;;;2.65;;
17696;SDS011;8967;47.984;7.842;2023-07-31T13:40:29;3.63;;;2.40;;
17696;SDS011;8967;47.984;7.842;2023-07-31T13:42:56;5.82;;;2.72;;
17696;SDS011;8967;47.984;7.842;2023-07-31T13:45:25;4.95;;;3.08;;
17696;SDS011;8967;47.984;7.842;2023-07-31T13:47:53;6.70;;;2.88;;
17696;SDS011;8967;47.984;7.842;2023-07-31T13:50:20;2.72;;;2.40;;
17696;SDS011;8967;47.984;7.842;2023-07-31T13:52:50;5.40;;;2.58;;
17696;SDS011;8967;47.984;7.842;2023-07-31T13:55:16;4.72;;;2.97;;
17696;SDS011;8967;47.984;7.842;2023-07-31T13:57:45;4.28;;;2.47;;
17696;SDS011;8967;47.984;7.842;2023-07-31T14:00:14;5.80;;;2.70;;
17696;SDS011;8967;47.984;7.842;2023-07-31T14:02:41;4.88;;;2.50;;
17696;SDS011;8967;47.984;7.842;2023-07-31T14:05:08;4.07;;;2.35;;
17696;SDS011;8967;47.984;7.842;2023-07-31T14:07:35;5.53;;;2.25;;
17696;SDS011;8967;47.984;7.842;2023-07-31T14:10:02;6.97;;;2.95;;
17696;SDS011;8967;47.984;7.842;2023-07-31T14:12:30;2.63;;;2.30;;
17696;SDS011;8967;47.984;7.842;2023-07-31T14:14:58;4.65;;;2.53;;
17696;SDS011;8967;47.984;7.842;2023-07-31T14:17:25;4.95;;;2.67;;
17696;SDS011;8967;47.984;7.842;2023-07-31T14:19:52;4.75;;;2.67;;
17696;SDS011;8967;47.984;7.842;2023-07-31T14:22:26;4.30;;;2.67;;
17696;SDS011;8967;47.984;7.842;2023-07-31T14:24:56;3.63;;;2.40;;
17696;SDS011;8967;47.984;7.842;2023-07-31T14:27:25;7.13;;;3.22;;
17696;SDS011;8967;47.984;7.842;2023-07-31T14:29:52;5.18;;;2.75;;
17696;SDS011;8967;47.984;7.842;2023-07-31T14:32:20;6.00;;;2.63;;
17696;SDS011;8967;47.984;7.842;2023-07-31T14:34:48;4.50;;;2.47;;
17696;SDS011;8967;47.984;7.842;2023-07-31T14:37:15;4.82;;;2.53;;
17696;SDS011;8967;47.984;7.842;2023-07-31T14:39:44;3.67;;;2.67;;
17696;SDS011;8967;47.984;7.842;2023-07-31T14:42:11;4.13;;;2.42;;
17696;SDS011;8967;47.984;7.842;2023-07-31T14:44:38;6.00;;;2.92;;
17696;SDS011;8967;47.984;7.842;2023-07-31T14:47:05;3.70;;;2.35;;
17696;SDS011;8967;47.984;7.842;2023-07-31T14:49:36;6.35;;;2.67;;
17696;SDS011;8967;47.984;7.842;2023-07-31T14:52:03;5.35;;;2.60;;
17696;SDS011;8967;47.984;7.842;2023-07-31T14:54:30;3.88;;;2.20;;
17696;SDS011;8967;47.984;7.842;2023-07-31T14:56:59;5.65;;;2.50;;
17696;SDS011;8967;47.984;7.842;2023-07-31T14:59:26;4.30;;;2.72;;
17696;SDS011;8967;47.984;7.842;2023-07-31T15:01:53;4.85;;;2.67;;
17696;SDS011;8967;47.984;7.842;2023-07-31T15:04:20;3.47;;;2.65;;
17696;SDS011;8967;47.984;7.842;2023-07-31T15:06:50;5.20;;;2.17;;